Time;durP1;ratioP1;P1;durP2;ratioP2;P2;SDS_P1;SDS_P2;PMS_P1;PMS_P2;Temp;Humidity;BMP_temperature;BMP_pressure;BME280_temperature;BME280_humidity;BME280_pressure;Samples;Min_cycle;Max_cycle;Signal;HPM_P1;HPM_P2
2022/10/21 00:00:24;;;;;;;97.47;39.58;;;;;;;12.58;100.00;100804.81;5075371;28;20032;-76
2022/10/21 00:02:50;;;;;;;106.70;42.92;;;;;;;12.40;100.00;100780.25;5075134;28;20025;-77
2022/10/21 00:05:15;;;;;;;98.15;40.80;;;;;;;12.50;100.00;100799.38;5074708;28;20094;-76
2022/10/21 00:07:40;;;;;;;99.35;41.60;;;;;;;12.55;100.00;100818.00;5074953;28;20025;-76
2022/10/21 00:10:06;;;;;;;101.10;41.25;;;;;;;12.46;100.00;100798.75;5075028;28;20103;-77
2022/10/21 00:12:33;;;;;;;108.93;41.35;;;;;;;12.48;100.00;100799.47;5074778;28;20104;-76
2022/10/21 00:14:58;;;;;;;100.45;41.60;;;;;;;12.29;100.00;100763.72;5074839;28;20021;-77
2022/10/21 00:17:24;;;;;;;103.45;41.63;;;;;;;12.47;100.00;100792.66;5074788;28;20016;-76
2022/10/21 00:19:49;;;;;;;112.82;42.67;;;;;;;12.36;100.00;100782.22;5074824;28;20103;-76
2022/10/21 00:22:14;;;;;;;94.43;40.80;;;;;;;12.46;100.00;100801.34;5074235;28;20033;-76
2022/10/21 00:24:40;;;;;;;95.10;41.67;;;;;;;12.44;100.00;100794.63;5074557;28;20016;-77
2022/10/21 00:27:05;;;;;;;100.85;41.22;;;;;;;12.32;100.00;100773.03;5074623;28;20021;-77
2022/10/21 00:29:31;;;;;;;93.32;40.13;;;;;;;12.46;100.00;100795.34;5074406;28;20086;-77
2022/10/21 00:31:56;;;;;;;95.50;40.05;;;;;;;12.27;100.00;100765.56;5074175;28;20044;-76
2022/10/21 00:34:22;;;;;;;98.05;38.10;;;;;;;12.31;100.00;100768.78;5074482;28;20472;-77
2022/10/21 00:36:48;;;;;;;92.88;38.78;;;;;;;12.19;100.00;100761.88;5074251;28;20032;-77
2022/10/21 00:39:13;;;;;;;95.22;39.67;;;;;;;12.08;100.00;100762.63;5074371;28;20052;-77
2022/10/21 00:41:39;;;;;;;104.95;38.80;;;;;;;12.12;100.00;100782.22;5074290;28;20028;-77
2022/10/21 00:44:07;;;;;;;98.68;39.75;;;;;;;12.05;100.00;100773.22;5074044;28;20028;-78
2022/10/21 00:46:42;;;;;;;92.05;38.55;;;;;;;12.05;100.00;100784.38;5074414;28;20028;-77
2022/10/21 00:49:21;;;;;;;98.85;41.45;;;;;;;11.95;100.00;100772.19;5074218;28;20020;-77
2022/10/21 00:51:48;;;;;;;99.57;39.70;;;;;;;11.94;100.00;100779.13;5073889;28;20120;-77
2022/10/21 00:54:16;;;;;;;111.53;41.50;;;;;;;11.79;100.00;100754.28;5074078;28;20056;-77
2022/10/21 00:56:44;;;;;;;112.43;43.72;;;;;;;11.93;100.00;100776.66;5073840;28;20042;-78
2022/10/21 00:59:10;;;;;;;110.55;41.90;;;;;;;11.86;100.00;100758.13;5073994;28;20033;-77
2022/10/21 01:01:36;;;;;;;112.20;43.20;;;;;;;11.94;100.00;100762.78;5073997;28;20040;-77
2022/10/21 01:04:02;;;;;;;116.57;44.50;;;;;;;12.05;100.00;100773.22;5073774;28;20028;-77
2022/10/21 01:06:30;;;;;;;120.78;46.70;;;;;;;12.11;100.00;100769.38;5073683;28;20020;-76
2022/10/21 01:08:56;;;;;;;121.53;45.65;;;;;;;11.94;100.00;100739.50;5073715;28;20021;-76
2022/10/21 01:11:24;;;;;;;110.68;43.65;;;;;;;12.15;100.00;100757.84;5073676;28;20029;-77
2022/10/21 01:14:07;;;;;;;111.85;42.42;;;;;;;12.16;100.00;100754.34;5073806;28;20043;-76
2022/10/21 01:16:51;;;;;;;113.50;43.65;;;;;;;12.11;100.00;100746.09;5073679;28;20475;-77
2022/10/21 01:19:37;;;;;;;120.68;40.95;;;;;;;12.05;100.00;100761.09;5073565;28;20024;-77
2022/10/21 01:22:18;;;;;;;103.68;41.17;;;;;;;11.96;100.00;100753.97;5072999;28;20488;-79
2022/10/21 01:25:18;;;;;;;119.93;41.67;;;;;;;11.93;100.00;100750.78;5073463;28;20365;-78
2022/10/21 01:28:12;;;;;;;115.60;40.97;;;;;;;11.86;100.00;100750.38;5068598;28;20040;-78
2022/10/21 01:30:44;;;;;;;111.53;42.20;;;;;;;11.73;100.00;100732.25;5073502;28;20099;-77
2022/10/21 01:33:30;;;;;;;114.32;41.72;;;;;;;11.57;100.00;100710.13;5073586;28;20475;-79
2022/10/21 01:36:18;;;;;;;118.75;43.35;;;;;;;11.68;100.00;100736.91;5073264;28;20107;-77
2022/10/21 01:38:53;;;;;;;107.07;41.35;;;;;;;11.62;100.00;100733.94;4991511;28;20030;-77
2022/10/21 01:41:24;;;;;;;114.22;42.63;;;;;;;11.58;100.00;100735.06;4992047;28;20065;-78
2022/10/21 01:44:08;;;;;;;113.05;43.63;;;;;;;11.50;100.00;100727.81;4991409;28;20538;-77
2022/10/21 01:46:42;;;;;;;101.78;41.03;;;;;;;11.39;100.00;100710.47;4991920;28;20034;-77
2022/10/21 01:49:21;;;;;;;102.00;41.25;;;;;;;11.41;100.00;100713.78;4992084;28;20491;-78
2022/10/21 01:51:46;;;;;;;105.43;42.97;;;;;;;11.36;100.00;100715.84;4991817;28;20034;-76
2022/10/21 01:54:18;;;;;;;111.72;41.80;;;;;;;11.18;100.00;100681.72;4991472;28;20474;-77
2022/10/21 01:56:45;;;;;;;100.93;39.60;;;;;;;11.24;100.00;100706.34;4991480;28;20042;-77
2022/10/21 01:59:13;;;;;;;106.70;41.78;;;;;;;11.13;100.00;100683.81;4991788;28;20122;-76
2022/10/21 02:01:40;;;;;;;107.38;40.75;;;;;;;11.19;100.00;100696.31;4991597;28;20442;-77
2022/10/21 02:04:09;;;;;;;108.03;40.33;;;;;;;11.10;100.00;100678.00;4974674;28;20042;-77
2022/10/21 02:06:34;;;;;;;102.75;39.50;;;;;;;11.01;100.00;100678.63;4991851;28;20027;-77
2022/10/21 02:09:00;;;;;;;104.82;41.05;;;;;;;11.12;100.00;100689.91;4991484;28;20038;-77
2022/10/21 02:11:27;;;;;;;102.60;39.17;;;;;;;10.97;100.00;100675.44;4991539;28;20034;-77
2022/10/21 02:14:00;;;;;;;106.55;41.28;;;;;;;10.94;100.00;100661.91;4991635;28;20586;-77
2022/10/21 02:16:30;;;;;;;109.85;39.75;;;;;;;10.97;100.00;100675.44;5056296;28;20035;-78
2022/10/21 02:18:55;;;;;;;111.28;41.38;;;;;;;11.03;100.00;100682.78;5073256;28;20024;-77
2022/10/21 02:21:24;;;;;;;110.07;41.58;;;;;;;11.01;100.00;100678.63;5072720;28;20109;-77
2022/10/21 02:23:56;;;;;;;106.93;40.95;;;;;;;10.98;100.00;100681.41;5054678;28;20032;-79
2022/10/21 02:26:23;;;;;;;107.00;39.85;;;;;;;10.95;100.00;100668.72;5072805;28;20086;-77
2022/10/21 02:28:49;;;;;;;99.63;41.17;;;;;;;10.83;100.00;100655.69;5072885;28;20380;-76
2022/10/21 02:31:20;;;;;;;102.53;39.58;;;;;;;10.89;100.00;100667.34;5073027;28;20024;-76
2022/10/21 02:33:57;;;;;;;110.38;39.63;;;;;;;10.90;100.00;100671.59;5072860;28;20059;-77
2022/10/21 02:36:46;;;;;;;108.13;41.35;;;;;;;10.82;100.00;100666.97;5072557;28;20028;-76
2022/10/21 02:39:25;;;;;;;100.88;37.38;;;;;;;10.85;100.00;100682.25;5072418;28;20361;-76
2022/10/21 02:41:53;;;;;;;95.03;37.38;;;;;;;10.82;100.00;100677.28;5072801;28;20035;-77
2022/10/21 02:44:20;;;;;;;103.43;38.30;;;;;;;10.71;100.00;100666.81;5072633;28;20379;-76
2022/10/21 02:46:46;;;;;;;105.03;39.55;;;;;;;10.66;100.00;100657.72;5072708;28;20086;-75
2022/10/21 02:49:11;;;;;;;109.93;40.75;;;;;;;10.83;100.00;100678.13;5072297;28;20033;-76
2022/10/21 02:51:38;;;;;;;108.85;40.33;;;;;;;10.83;100.00;100672.94;5072748;28;20025;-78
2022/10/21 02:54:04;;;;;;;119.97;40.67;;;;;;;10.86;100.00;100678.72;5072860;28;20032;-77
2022/10/21 02:56:29;;;;;;;110.65;41.08;;;;;;;10.81;100.00;100664.44;5076371;28;20543;-76
2022/10/21 02:58:55;;;;;;;108.95;39.47;;;;;;;10.93;100.00;100668.00;5076179;28;20032;-76
2022/10/21 03:01:20;;;;;;;104.95;39.80;;;;;;;10.93;100.00;100668.00;5076277;28;20107;-76
2022/10/21 03:03:45;;;;;;;111.45;40.92;;;;;;;10.90;100.00;100653.50;5075991;28;20032;-76
2022/10/21 03:06:11;;;;;;;104.95;40.35;;;;;;;10.94;100.00;100657.56;5076022;28;20029;-76
2022/10/21 03:08:36;;;;;;;112.03;41.05;;;;;;;10.87;100.00;100645.97;5075944;28;20024;-76
2022/10/21 03:11:02;;;;;;;103.30;37.22;;;;;;;10.88;100.00;100652.78;5076049;28;20029;-75
2022/10/21 03:13:27;;;;;;;106.25;40.20;;;;;;;10.85;100.00;100653.81;5076071;28;20021;-76
2022/10/21 03:15:52;;;;;;;106.18;38.20;;;;;;;10.83;100.00;100657.44;5076024;28;20154;-76
2022/10/21 03:18:18;;;;;;;104.38;37.95;;;;;;;10.80;100.00;100658.47;5075898;28;20059;-76
2022/10/21 03:20:43;;;;;;;99.10;37.85;;;;;;;10.79;100.00;100654.22;5075725;28;20187;-79
2022/10/21 03:23:09;;;;;;;100.80;36.60;;;;;;;10.67;100.00;100639.56;5075730;28;20036;-76
2022/10/21 03:25:34;;;;;;;101.72;37.22;;;;;;;10.76;100.00;100661.38;5075575;28;20025;-76
2022/10/21 03:28:00;;;;;;;105.55;36.83;;;;;;;10.66;100.00;100649.97;5075847;28;20035;-76
2022/10/21 03:30:25;;;;;;;103.45;38.63;;;;;;;10.75;100.00;100668.28;5075631;28;20031;-77
2022/10/21 03:32:50;;;;;;;101.30;37.97;;;;;;;10.73;100.00;100659.00;5075477;28;20114;-76
2022/10/21 03:35:16;;;;;;;93.55;37.55;;;;;;;10.48;100.00;100624.44;5075526;28;20136;-77
2022/10/21 03:37:41;;;;;;;105.82;35.65;;;;;;;10.68;100.00;100655.88;5075442;28;20060;-77
2022/10/21 03:40:07;;;;;;;93.43;37.15;;;;;;;10.63;100.00;100664.75;5075373;28;20444;-77
2022/10/21 03:42:33;;;;;;;106.55;36.67;;;;;;;10.56;100.00;100658.34;5075559;28;20028;-77
2022/10/21 03:44:58;;;;;;;98.40;36.80;;;;;;;10.61;100.00;100663.19;5057127;28;20045;-77
2022/10/21 03:47:23;;;;;;;94.72;35.42;;;;;;;10.57;100.00;100654.81;5075500;28;20050;-77
2022/10/21 03:49:49;;;;;;;93.00;34.47;;;;;;;10.54;100.00;100657.63;5075302;28;20111;-76
2022/10/21 03:52:14;;;;;;;104.82;36.88;;;;;;;10.45;100.00;100644.47;5075199;28;20021;-76
2022/10/21 03:54:40;;;;;;;94.10;33.97;;;;;;;10.47;100.00;100651.19;5074982;28;20299;-77
2022/10/21 03:57:05;;;;;;;87.82;34.42;;;;;;;10.48;100.00;100654.59;5075459;28;20060;-77
2022/10/21 03:59:30;;;;;;;95.05;36.08;;;;;;;10.31;100.00;100630.69;5075062;28;20108;-76
2022/10/21 04:01:56;;;;;;;97.30;35.08;;;;;;;10.45;100.00;100650.47;5075144;28;20020;-77
2022/10/21 04:04:21;;;;;;;84.43;31.17;;;;;;;10.34;100.00;100627.94;5075066;28;20035;-77
2022/10/21 04:06:46;;;;;;;88.90;33.63;;;;;;;10.42;100.00;100645.50;5074171;28;20021;-76
2022/10/21 04:09:12;;;;;;;88.97;32.47;;;;;;;10.42;100.00;100645.50;5074925;28;20033;-77
2022/10/21 04:11:37;;;;;;;102.35;33.00;;;;;;;10.40;100.00;100652.50;5075052;28;20104;-77
2022/10/21 04:14:02;;;;;;;92.75;32.13;;;;;;;10.39;100.00;100650.84;5074769;28;20489;-77
2022/10/21 04:16:28;;;;;;;87.90;32.88;;;;;;;10.31;100.00;100651.34;5074988;28;20390;-77
2022/10/21 04:18:53;;;;;;;83.85;31.45;;;;;;;10.31;100.00;100648.75;5074931;28;20083;-78
2022/10/21 04:21:19;;;;;;;84.30;31.42;;;;;;;10.29;100.00;100654.97;5074716;28;20119;-78
2022/10/21 04:23:44;;;;;;;80.88;31.50;;;;;;;10.23;100.00;100645.06;5074620;28;20047;-78
2022/10/21 04:26:10;;;;;;;83.00;30.17;;;;;;;10.28;100.00;100663.63;5074506;28;20024;-77
2022/10/21 04:28:36;;;;;;;80.07;30.48;;;;;;;10.14;100.00;100637.88;5074513;28;20028;-79
2022/10/21 04:31:01;;;;;;;78.65;29.35;;;;;;;10.18;100.00;100652.22;5056636;28;20036;-77
2022/10/21 04:33:27;;;;;;;78.57;28.27;;;;;;;10.14;100.00;100649.00;5074602;28;20050;-77
2022/10/21 04:35:53;;;;;;;72.35;28.25;;;;;;;10.08;100.00;100644.22;5074438;28;20051;-77
2022/10/21 04:38:19;;;;;;;78.32;29.95;;;;;;;9.93;100.00;100621.97;5074909;28;20505;-77
2022/10/21 04:40:44;;;;;;;80.88;27.38;;;;;;;10.03;100.00;100643.72;5074117;28;20028;-77
2022/10/21 04:43:09;;;;;;;69.63;26.80;;;;;;;9.95;100.00;100646.78;5074157;28;20029;-77
2022/10/21 04:45:38;;;;;;;72.18;28.55;;;;;;;9.84;100.00;100641.47;5074400;28;20020;-77
2022/10/21 04:48:04;;;;;;;68.38;27.48;;;;;;;9.89;100.00;100661.78;5074270;28;20021;-77
2022/10/21 04:50:29;;;;;;;70.90;28.70;;;;;;;9.89;100.00;100660.03;5074361;28;20035;-77
2022/10/21 04:52:55;;;;;;;72.55;28.00;;;;;;;9.88;100.00;100658.38;5074125;28;20021;-77
2022/10/21 04:55:20;;;;;;;68.72;27.70;;;;;;;9.83;100.00;100651.84;5073787;28;20414;-77
2022/10/21 04:58:11;;;;;;;72.25;27.23;;;;;;;9.86;100.00;100662.81;5073928;28;20033;-80
2022/10/21 05:00:37;;;;;;;73.47;26.80;;;;;;;9.83;100.00;100637.19;5062765;28;20040;-77
2022/10/21 05:03:02;;;;;;;69.85;26.70;;;;;;;9.89;100.00;100654.88;5073852;28;20028;-77
2022/10/21 05:05:28;;;;;;;70.60;27.77;;;;;;;9.88;100.00;100649.81;5074075;28;20449;-76
2022/10/21 05:07:53;;;;;;;76.43;28.08;;;;;;;9.84;100.00;100643.22;5073686;28;20024;-77
2022/10/21 05:10:18;;;;;;;74.45;26.92;;;;;;;9.74;100.00;100632.66;5073887;28;20021;-77
2022/10/21 05:12:44;;;;;;;72.25;27.48;;;;;;;9.85;100.00;100648.28;5073546;28;20458;-77
2022/10/21 05:15:09;;;;;;;65.15;25.92;;;;;;;9.56;100.00;100592.53;5073707;28;20127;-77
2022/10/21 05:17:37;;;;;;;77.50;25.83;;;;;;;9.89;100.00;100646.31;5073196;28;20032;-77
2022/10/21 05:20:03;;;;;;;71.38;26.10;;;;;;;9.91;100.00;100653.03;5073200;28;20020;-77
2022/10/21 05:22:29;;;;;;;75.18;25.30;;;;;;;9.80;100.00;100639.16;5073351;28;20036;-78
2022/10/21 05:24:54;;;;;;;69.78;27.20;;;;;;;9.91;100.00;100654.78;5073477;28;20124;-77
2022/10/21 05:27:19;;;;;;;69.82;26.00;;;;;;;9.90;100.00;100642.81;5073352;28;20021;-78
2022/10/21 05:29:44;;;;;;;67.22;26.02;;;;;;;9.94;100.00;100644.28;5073575;28;20032;-78
2022/10/21 05:32:10;;;;;;;66.07;24.60;;;;;;;9.94;100.00;100637.38;5073430;28;20029;-78
2022/10/21 05:34:35;;;;;;;61.17;23.60;;;;;;;9.91;100.00;100627.22;5073384;28;20103;-78
2022/10/21 05:37:00;;;;;;;64.10;25.45;;;;;;;9.96;100.00;100627.78;5073146;28;20060;-78
2022/10/21 05:39:26;;;;;;;60.90;25.38;;;;;;;9.90;100.00;100612.69;5073267;28;20033;-77
2022/10/21 05:41:51;;;;;;;69.00;26.55;;;;;;;9.95;100.00;100622.72;5073216;28;20099;-77
2022/10/21 05:44:16;;;;;;;62.17;24.13;;;;;;;9.93;100.00;100617.66;5073240;28;20033;-77
2022/10/21 05:46:42;;;;;;;61.08;24.88;;;;;;;9.90;100.00;100615.25;5055347;28;20036;-80
2022/10/21 05:49:07;;;;;;;63.17;24.17;;;;;;;9.89;100.00;100616.19;5073334;28;20111;-78
2022/10/21 05:51:33;;;;;;;63.25;24.33;;;;;;;9.90;100.00;100611.88;5073104;28;20052;-79
2022/10/21 05:53:58;;;;;;;59.35;23.35;;;;;;;9.83;100.00;100616.56;5073253;28;20077;-79
2022/10/21 05:56:23;;;;;;;60.40;23.80;;;;;;;9.82;100.00;100609.75;5073096;28;20025;-79
2022/10/21 05:58:50;;;;;;;58.58;24.25;;;;;;;9.78;100.00;100609.13;5072950;28;20158;-79
2022/10/21 06:01:15;;;;;;;56.25;23.00;;;;;;;9.71;100.00;100599.31;5054696;28;20044;-79
2022/10/21 06:03:41;;;;;;;59.70;23.40;;;;;;;9.65;100.00;100585.06;5073041;28;20426;-79
2022/10/21 06:06:07;;;;;;;66.55;24.85;;;;;;;9.72;100.00;100588.06;5072971;28;20035;-79
2022/10/21 06:08:35;;;;;;;62.63;26.20;;;;;;;9.84;100.00;100620.00;5073039;28;20066;-80
2022/10/21 06:11:07;;;;;;;63.55;22.40;;;;;;;9.82;100.00;100620.06;5072919;28;20020;-78
2022/10/21 06:13:33;;;;;;;58.20;25.30;;;;;;;9.76;100.00;100600.69;5072703;28;20028;-82
2022/10/21 06:15:59;;;;;;;61.08;25.15;;;;;;;9.82;100.00;100606.34;5073078;28;20112;-79
2022/10/21 06:18:25;;;;;;;54.47;23.25;;;;;;;9.81;100.00;100610.69;5072991;28;20123;-78
2022/10/21 06:20:50;;;;;;;60.28;26.05;;;;;;;9.76;100.00;100595.53;5072603;28;20036;-78
2022/10/21 06:23:16;;;;;;;65.68;24.27;;;;;;;9.61;100.00;100564.72;5072737;28;20029;-80
2022/10/21 06:25:43;;;;;;;61.42;24.88;;;;;;;9.77;100.00;100588.63;5054295;28;20368;-79
2022/10/21 06:28:08;;;;;;;61.13;24.25;;;;;;;9.88;100.00;100604.22;5072608;28;20086;-78
2022/10/21 06:30:34;;;;;;;61.05;24.05;;;;;;;9.93;100.00;100607.34;5075784;28;20028;-79
2022/10/21 06:32:59;;;;;;;59.97;24.45;;;;;;;9.96;100.00;100607.16;5076677;28;20027;-79
2022/10/21 06:35:25;;;;;;;63.45;23.98;;;;;;;9.78;100.00;100574.78;5076711;28;20036;-78
2022/10/21 06:37:50;;;;;;;52.63;23.52;;;;;;;9.80;100.00;100590.16;5076750;28;20083;-79
2022/10/21 06:40:16;;;;;;;53.67;23.73;;;;;;;9.94;100.00;100601.28;5076523;28;20032;-79
2022/10/21 06:42:41;;;;;;;57.90;23.60;;;;;;;10.05;100.00;100616.88;5076265;28;20025;-79
2022/10/21 06:45:07;;;;;;;59.75;23.60;;;;;;;10.10;100.00;100613.16;5075251;28;20024;-75
2022/10/21 06:47:32;;;;;;;63.15;24.55;;;;;;;10.13;100.00;100615.53;5076682;28;20098;-76
2022/10/21 06:50:01;;;;;;;67.68;25.48;;;;;;;10.10;100.00;100608.84;5058557;28;20029;-78
2022/10/21 06:52:27;;;;;;;62.28;24.35;;;;;;;10.18;100.00;100621.25;5076165;28;20035;-77
2022/10/21 06:54:52;;;;;;;61.35;23.73;;;;;;;10.28;100.00;100633.50;5076211;28;20020;-78
2022/10/21 06:57:17;;;;;;;67.82;25.50;;;;;;;10.39;100.00;100647.44;5076477;28;20414;-78
2022/10/21 06:59:43;;;;;;;66.57;26.02;;;;;;;10.42;100.00;100655.84;5076085;28;20035;-78
2022/10/21 07:02:08;;;;;;;60.58;23.95;;;;;;;10.48;100.00;100657.19;5076083;28;20025;-77
2022/10/21 07:04:34;;;;;;;66.80;24.35;;;;;;;10.43;100.00;100651.50;5076465;28;20361;-78
2022/10/21 07:06:59;;;;;;;67.40;24.58;;;;;;;10.58;100.00;100665.97;5057719;28;20480;-77
2022/10/21 07:09:24;;;;;;;63.78;23.95;;;;;;;10.65;100.00;100669.00;5076109;28;20135;-79
2022/10/21 07:11:50;;;;;;;74.20;24.50;;;;;;;10.53;100.00;100647.41;5076003;28;20025;-79
2022/10/21 07:14:15;;;;;;;61.28;23.48;;;;;;;10.74;100.00;100681.31;5075929;28;20025;-78
2022/10/21 07:16:40;;;;;;;64.40;23.98;;;;;;;10.72;100.00;100672.84;5075629;28;20016;-78
2022/10/21 07:19:06;;;;;;;61.85;24.17;;;;;;;10.86;100.00;100683.06;5075914;28;20029;-78
2022/10/21 07:21:31;;;;;;;60.25;23.50;;;;;;;10.94;100.00;100677.41;5075566;28;20045;-79
2022/10/21 07:23:58;;;;;;;66.20;24.73;;;;;;;11.02;100.00;100682.88;5075956;28;20068;-78
2022/10/21 07:26:24;;;;;;;68.43;23.73;;;;;;;11.02;100.00;100675.13;5075678;28;20056;-78
2022/10/21 07:28:51;;;;;;;68.13;22.63;;;;;;;11.13;100.00;100685.56;5057803;28;20071;-78
2022/10/21 07:31:18;;;;;;;58.00;20.92;;;;;;;11.19;100.00;100682.56;5075374;28;20484;-79
2022/10/21 07:33:43;;;;;;;56.60;21.75;;;;;;;11.17;100.00;100669.75;5075695;28;20035;-83
2022/10/21 07:36:17;;;;;;;59.40;21.90;;;;;;;11.38;100.00;100695.88;5075616;28;20032;-78
2022/10/21 07:38:45;;;;;;;50.85;20.55;;;;;;;11.40;100.00;100683.66;5075549;28;20035;-79
2022/10/21 07:41:26;;;;;;;52.05;21.95;;;;;;;11.53;100.00;100683.66;5074215;28;20025;-78
2022/10/21 07:43:53;;;;;;;66.18;21.58;;;;;;;11.72;100.00;100694.41;5075330;28;20049;-83
2022/10/21 07:46:19;;;;;;;55.22;22.27;;;;;;;11.80;100.00;100695.63;5057425;28;20533;-78
2022/10/21 07:48:45;;;;;;;57.28;23.23;;;;;;;11.84;100.00;100681.56;5075479;28;20134;-77
2022/10/21 07:51:13;;;;;;;52.80;22.17;;;;;;;11.97;100.00;100695.28;5075374;28;20035;-78
2022/10/21 07:53:39;;;;;;;64.10;22.48;;;;;;;12.05;100.00;100693.81;5075230;28;20043;-85
2022/10/21 07:56:15;;;;;;;59.75;24.67;;;;;;;11.94;100.00;100669.63;5075362;28;20066;-78
2022/10/21 07:58:42;;;;;;;59.50;21.88;;;;;;;12.06;100.00;100681.69;5075068;28;20024;-80
2022/10/21 08:01:08;;;;;;;50.10;21.30;;;;;;;12.01;100.00;100656.16;5075482;28;20021;-83
2022/10/21 08:03:34;;;;;;;58.60;24.17;;;;;;;12.29;100.00;100703.31;5057148;28;20071;-82
2022/10/21 08:06:00;;;;;;;62.33;24.35;;;;;;;12.19;100.00;100682.47;5075201;28;20482;-82
2022/10/21 08:08:25;;;;;;;62.67;25.10;;;;;;;12.38;100.00;100697.47;5074932;28;20107;-82
2022/10/21 08:10:52;;;;;;;56.25;24.45;;;;;;;12.26;100.00;100675.06;5075076;28;20028;-85
2022/10/21 08:13:18;;;;;;;54.42;22.00;;;;;;;12.44;100.00;100704.00;5075033;28;20028;-84
2022/10/21 08:15:45;;;;;;;53.60;21.77;;;;;;;12.53;100.00;100698.16;5075079;28;20491;-85
2022/10/21 08:18:10;;;;;;;51.42;22.02;;;;;;;12.55;100.00;100685.91;5075119;28;20473;-84
2022/10/21 08:20:40;;;;;;;48.03;20.35;;;;;;;12.41;100.00;100665.38;5074963;28;20035;-83
2022/10/21 08:23:06;;;;;;;55.50;20.73;;;;;;;12.58;100.00;100690.84;5074764;28;20035;-85
2022/10/21 08:25:32;;;;;;;52.97;22.70;;;;;;;12.50;100.00;100678.47;5074908;28;20024;-84
2022/10/21 08:27:57;;;;;;;51.53;22.13;;;;;;;12.50;100.00;100672.47;5074986;28;20504;-78
2022/10/21 08:30:24;;;;;;;57.78;22.08;;;;;;;12.35;100.00;100649.34;5074721;28;20028;-78
2022/10/21 08:32:50;;;;;;;52.90;22.05;;;;;;;12.48;100.00;100682.91;5074657;28;20024;-77
2022/10/21 08:35:15;;;;;;;52.85;22.50;;;;;;;12.33;100.00;100669.34;5074579;28;20036;-77
2022/10/21 08:37:41;;;;;;;54.75;22.17;;;;;;;12.33;100.00;100671.94;5074510;28;20020;-77
2022/10/21 08:40:08;;;;;;;68.00;23.38;;;;;;;12.42;100.00;100695.50;5055793;28;20036;-80
2022/10/21 08:42:34;;;;;;;52.08;23.05;;;;;;;12.30;100.00;100687.69;5074248;28;20473;-78
2022/10/21 08:45:06;;;;;;;65.32;23.88;;;;;;;12.25;100.00;100678.59;5074353;28;20016;-77
2022/10/21 08:47:46;;;;;;;;;;;;;;;12.43;100.00;100705.75;5074911;28;20013;-81
2022/10/21 08:50:15;;;;;;;58.83;22.80;;;;;;;12.29;100.00;100685.19;5074341;28;19913;-79
2022/10/21 08:52:44;;;;;;;57.63;24.27;;;;;;;12.25;100.00;100696.72;5055944;28;20024;-79
2022/10/21 08:55:18;;;;;;;58.72;23.73;;;;;;;12.41;100.00;100722.34;5074151;28;20103;-83
2022/10/21 08:57:45;;;;;;;56.55;23.48;;;;;;;12.38;100.00;100719.97;5074107;28;20449;-81
2022/10/21 09:00:19;;;;;;;58.75;24.27;;;;;;;12.23;100.00;100688.25;5073920;28;20430;-78
2022/10/21 09:02:59;;;;;;;65.47;24.73;;;;;;;12.52;100.00;100725.00;5073954;28;20472;-78
2022/10/21 09:05:30;;;;;;;64.07;25.75;;;;;;;12.59;100.00;100711.47;5073997;28;20074;-80
2022/10/21 09:08:10;;;;;;;63.33;25.65;;;;;;;12.70;100.00;100717.63;5074095;28;20013;-86
2022/10/21 09:10:46;;;;;;;65.28;25.55;;;;;;;12.77;100.00;100716.22;5074034;28;20366;-85
2022/10/21 09:13:35;;;;;;;59.28;25.25;;;;;;;12.85;100.00;100725.09;5073799;28;20024;-80
2022/10/21 09:16:08;;;;;;;62.35;24.98;;;;;;;12.96;100.00;100726.88;5055717;28;20067;-80
2022/10/21 09:18:45;;;;;;;54.40;23.02;;;;;;;13.09;100.00;100726.81;5073772;28;20028;-82
2022/10/21 09:21:23;;;;;;;52.13;21.60;;;;;;;13.05;100.00;100702.88;5073533;28;20039;-81
2022/10/21 09:23:55;;;;;;;50.60;21.35;;;;;;;13.32;100.00;100736.31;5073298;28;20127;-82
2022/10/21 09:26:34;;;;;;;54.10;19.77;;;;;;;13.36;100.00;100718.72;5073491;28;20135;-83
2022/10/21 09:29:54;;;;;;;49.92;20.38;;;;;;;13.29;100.00;100684.66;5073414;28;20111;-80
2022/10/21 09:32:28;;;;;;;41.22;15.13;;;;;;;13.44;100.00;100698.22;4991882;28;20084;-84
2022/10/21 09:35:15;;;;;;;33.97;14.77;;;;;;;13.60;100.00;100716.84;4991981;28;20039;-80
2022/10/21 09:37:46;;;;;;;35.08;12.90;;;;;;;13.65;100.00;100713.91;4991951;28;20026;-77
2022/10/21 09:40:24;;;;;;;28.90;11.73;;;;;;;13.59;100.00;100698.81;4975419;28;20046;-80
2022/10/21 09:42:54;;;;;;;33.00;11.07;;;;;;;13.58;100.00;100686.78;4992137;28;20128;-78
2022/10/21 09:45:22;;;;;;;29.57;11.33;;;;;;;13.74;100.00;100705.41;4992023;28;20038;-76
2022/10/21 09:47:57;;;;;;;29.80;11.10;;;;;;;13.82;100.00;100690.06;4991881;28;20070;-76
2022/10/21 09:50:23;;;;;;;38.55;11.32;;;;;;;13.87;100.00;100695.72;4992802;28;20026;-81
2022/10/21 09:52:59;;;;;;;33.33;10.82;;;;;;;13.94;100.00;100701.22;4992007;28;20061;-76
2022/10/21 09:55:27;;;;;;;42.30;11.05;;;;;;;13.84;100.00;100663.97;4991963;28;20445;-76
2022/10/21 09:58:03;;;;;;;31.83;11.35;;;;;;;13.98;100.00;100680.13;4991728;28;20030;-78
2022/10/21 10:00:45;;;;;;;26.52;9.80;;;;;;;14.22;100.00;100692.91;4991886;28;20042;-78
2022/10/21 10:03:11;;;;;;;27.27;10.48;;;;;;;14.33;100.00;100694.63;4991579;28;20029;-76
2022/10/21 10:05:41;;;;;;;28.35;11.25;;;;;;;14.43;100.00;100682.53;5008668;28;20040;-77
2022/10/21 10:08:30;;;;;;;27.90;11.40;;;;;;;14.57;100.00;100681.47;5073142;28;20475;-76
2022/10/21 10:11:07;;;;;;;24.70;9.55;;;;;;;14.86;100.00;100710.25;5073096;28;20029;-77
2022/10/21 10:13:33;;;;;;;23.30;9.75;;;;;;;14.96;100.00;100703.34;5073076;28;20476;-80
2022/10/21 10:16:12;;;;;;;20.63;9.00;;;;;;;15.04;100.00;100708.69;5072137;28;20016;-77
2022/10/21 10:18:37;;;;;;;26.65;9.15;;;;;;;15.13;100.00;100713.13;5073026;28;20040;-79
2022/10/21 10:21:05;;;;;;;24.02;8.82;;;;;;;15.18;100.00;100716.19;5073037;28;20040;-78
2022/10/21 10:23:41;;;;;;;29.88;8.45;;;;;;;15.26;100.00;100722.53;5072975;28;20035;-85
2022/10/21 10:26:07;;;;;;;25.00;8.93;;;;;;;15.11;100.00;100696.03;5072952;28;20032;-78
2022/10/21 10:28:32;;;;;;;29.83;8.27;;;;;;;15.34;100.00;100705.31;5072927;28;20054;-77
2022/10/21 10:30:58;;;;;;;25.77;9.50;;;;;;;15.55;100.00;100720.88;5073018;28;20035;-76
2022/10/21 10:33:30;;;;;;;22.88;9.82;;;;;;;15.63;100.00;100722.84;5072278;28;20035;-77
2022/10/21 10:35:58;;;;;;;23.40;8.65;;;;;;;15.62;100.00;100716.81;5072788;28;20028;-77
2022/10/21 10:38:27;;;;;;;22.23;9.27;;;;;;;15.82;100.00;100727.28;5054736;28;20045;-78
2022/10/21 10:40:53;;;;;;;22.77;9.35;;;;;;;15.98;100.00;100732.81;5054647;28;20037;-78
2022/10/21 10:43:34;;;;;;;26.20;9.35;;;;;;;16.00;100.00;100708.28;5072585;28;20568;-76
2022/10/21 10:46:02;;;;;;;25.92;9.68;;;;;;;16.15;100.00;100729.56;5072432;28;20059;-78
2022/10/21 10:48:41;;;;;;;29.45;9.85;;;;;;;16.29;100.00;100729.16;5072720;28;20063;-78
2022/10/21 10:51:22;;;;;;;24.73;9.18;;;;;;;16.41;100.00;100736.84;5072263;28;20404;-81
2022/10/21 10:54:20;;;;;;;28.45;11.05;;;;;;;16.36;100.00;100713.81;5072604;28;20024;-77
2022/10/21 10:56:52;;;;;;;32.42;13.38;;;;;;;16.56;100.00;100738.09;4991226;28;20169;-80
2022/10/21 10:59:22;;;;;;;37.90;12.75;;;;;;;16.64;100.00;100739.06;4991479;28;20039;-78
2022/10/21 11:02:06;;;;;;;30.45;12.73;;;;;;;16.79;100.00;100733.44;4990963;28;20034;-79
2022/10/21 11:04:34;;;;;;;33.33;12.23;;;;;;;16.68;100.00;100695.31;4991233;28;20038;-80
2022/10/21 11:07:27;;;;;;;29.35;11.15;;;;;;;16.93;100.00;100730.44;4990969;28;20038;-86
2022/10/21 11:10:01;;;;;;;26.95;9.32;;;;;;;16.91;100.00;100707.09;4990857;28;20133;-85